Time;durP1;ratioP1;P1;durP2;ratioP2;P2;SDS_P1;SDS_P2;PMS_P1;PMS_P2;Temp;Humidity;BMP_temperature;BMP_pressure;BME280_temperature;BME280_humidity;BME280_pressure;Samples;Min_cycle;Max_cycle;Signal;HPM_P1;HPM_P2
2021/10/11 00:01:58;;;;;;;10.18;2.47;;;12.60;99.90;;;;;;5032739;28;20125;-50
2021/10/11 00:04:24;;;;;;;14.25;3.75;;;12.50;99.90;;;;;;5029585;28;20556;-52
2021/10/11 00:06:49;;;;;;;13.23;2.90;;;12.40;99.90;;;;;;5020660;28;20549;-49
2021/10/11 00:09:15;;;;;;;9.00;2.97;;;12.40;99.90;;;;;;5024686;28;20030;-48
2021/10/11 00:11:41;;;;;;;13.30;2.88;;;12.30;99.90;;;;;;5029784;28;20402;-50
2021/10/11 00:14:06;;;;;;;10.32;2.75;;;12.30;99.90;;;;;;5025132;28;20029;-53
2021/10/11 00:16:32;;;;;;;14.05;3.05;;;12.20;99.90;;;;;;5028547;28;20414;-50
2021/10/11 00:18:58;;;;;;;14.13;3.10;;;12.20;99.90;;;;;;5037906;28;20041;-51
2021/10/11 00:21:24;;;;;;;12.80;2.45;;;12.20;99.90;;;;;;5025422;28;20090;-49
2021/10/11 00:23:49;;;;;;;13.98;2.80;;;12.10;99.90;;;;;;5042918;28;20041;-50
2021/10/11 00:26:15;;;;;;;13.10;2.88;;;12.10;99.90;;;;;;5035207;28;20139;-50
2021/10/11 00:28:40;;;;;;;11.23;2.45;;;12.10;99.90;;;;;;5034347;28;20056;-48
2021/10/11 00:31:06;;;;;;;9.95;2.75;;;12.00;99.90;;;;;;5031967;28;20033;-50
2021/10/11 00:33:32;;;;;;;15.85;2.97;;;12.00;99.90;;;;;;5040173;28;20480;-48
2021/10/11 00:35:57;;;;;;;14.43;3.00;;;12.00;99.90;;;;;;4998243;28;20045;-52
2021/10/11 00:38:23;;;;;;;12.98;2.63;;;11.90;99.90;;;;;;5031767;28;20048;-51
2021/10/11 00:40:48;;;;;;;12.48;2.70;;;11.90;99.90;;;;;;5041890;28;20040;-51
2021/10/11 00:43:14;;;;;;;15.50;2.97;;;11.80;99.90;;;;;;5035345;28;20104;-48
2021/10/11 00:45:40;;;;;;;12.23;2.70;;;11.80;99.90;;;;;;5034917;28;20120;-52
2021/10/11 00:48:05;;;;;;;13.10;3.00;;;11.80;99.90;;;;;;5036010;28;20076;-51
2021/10/11 00:50:31;;;;;;;10.45;3.83;;;11.70;99.90;;;;;;5035477;28;20043;-48
2021/10/11 00:52:57;;;;;;;14.23;2.67;;;11.70;99.90;;;;;;5024496;28;20079;-50
2021/10/11 00:55:22;;;;;;;15.45;2.60;;;11.80;99.90;;;;;;5040087;28;20033;-50
2021/10/11 00:57:48;;;;;;;11.52;2.72;;;11.60;99.90;;;;;;5036874;28;20033;-50
2021/10/11 01:00:14;;;;;;;12.65;3.80;;;11.60;99.90;;;;;;5030737;28;20041;-51
2021/10/11 01:02:41;;;;;;;13.63;3.22;;;11.60;99.90;;;;;;5022784;28;20041;-51
2021/10/11 01:05:07;;;;;;;12.70;3.83;;;11.60;99.90;;;;;;5019092;28;20099;-51
2021/10/11 01:07:33;;;;;;;12.68;3.17;;;11.60;99.90;;;;;;5035840;28;20124;-48
2021/10/11 01:09:59;;;;;;;12.10;3.05;;;11.70;99.90;;;;;;5033539;28;20137;-48
2021/10/11 01:12:24;;;;;;;10.55;2.95;;;11.70;99.90;;;;;;5033768;28;20060;-50
2021/10/11 01:14:50;;;;;;;9.15;2.75;;;11.70;99.90;;;;;;5030756;28;20473;-51
2021/10/11 01:17:15;;;;;;;12.27;3.33;;;11.70;99.90;;;;;;5043987;28;20071;-51
2021/10/11 01:19:44;;;;;;;15.18;3.75;;;11.70;99.90;;;;;;5041876;28;20175;-49
2021/10/11 01:22:09;;;;;;;10.73;3.13;;;11.60;99.90;;;;;;5031030;28;20072;-51
2021/10/11 01:24:35;;;;;;;13.15;3.60;;;11.60;99.90;;;;;;5033693;28;20075;-49
2021/10/11 01:27:00;;;;;;;12.50;2.92;;;11.60;99.90;;;;;;5033805;28;20041;-52
2021/10/11 01:29:26;;;;;;;14.30;3.17;;;11.60;99.90;;;;;;5030357;28;20041;-51
2021/10/11 01:31:51;;;;;;;12.00;3.38;;;11.60;99.90;;;;;;5043039;28;20043;-51
2021/10/11 01:34:17;;;;;;;10.63;2.92;;;11.60;99.90;;;;;;5033332;28;20044;-51
2021/10/11 01:36:42;;;;;;;11.73;3.15;;;11.60;99.90;;;;;;5033492;28;20390;-50
2021/10/11 01:39:10;;;;;;;11.48;2.67;;;11.60;99.90;;;;;;5037045;28;20044;-47
2021/10/11 01:41:37;;;;;;;8.95;3.20;;;11.60;99.90;;;;;;5034290;28;20556;-50
2021/10/11 01:44:03;;;;;;;9.88;2.78;;;11.60;99.90;;;;;;5034196;28;20063;-49
2021/10/11 01:46:28;;;;;;;11.70;2.40;;;11.60;99.90;;;;;;5044622;28;20033;-51
2021/10/11 01:48:54;;;;;;;15.05;2.90;;;11.60;99.90;;;;;;5030709;28;20123;-51
2021/10/11 01:51:19;;;;;;;13.80;3.00;;;11.70;99.90;;;;;;5030910;28;20030;-50
2021/10/11 01:53:45;;;;;;;9.82;2.35;;;11.70;99.90;;;;;;5035086;28;20052;-51
2021/10/11 01:56:11;;;;;;;10.55;2.85;;;11.70;99.90;;;;;;5030728;28;20038;-51
2021/10/11 01:58:37;;;;;;;7.47;2.47;;;11.70;99.90;;;;;;5020974;28;20056;-51
2021/10/11 02:01:03;;;;;;;12.95;2.28;;;11.80;99.90;;;;;;5038093;28;20048;-49
2021/10/11 02:03:28;;;;;;;13.88;2.75;;;11.80;99.90;;;;;;5032396;28;20044;-51
2021/10/11 02:05:54;;;;;;;11.32;2.45;;;11.80;99.90;;;;;;5033648;28;20041;-48
2021/10/11 02:08:19;;;;;;;12.50;2.38;;;11.80;99.90;;;;;;5039642;28;20068;-50
2021/10/11 02:10:45;;;;;;;13.32;2.38;;;11.80;99.90;;;;;;5035356;28;20068;-50
2021/10/11 02:13:10;;;;;;;13.27;2.65;;;11.80;99.90;;;;;;5033125;28;20025;-51
2021/10/11 02:15:36;;;;;;;15.30;2.50;;;11.80;99.90;;;;;;5036523;28;20042;-51
2021/10/11 02:18:02;;;;;;;12.18;2.25;;;11.80;99.90;;;;;;5030915;28;20041;-52
2021/10/11 02:20:27;;;;;;;17.73;2.90;;;11.80;99.90;;;;;;5030688;28;20045;-48
2021/10/11 02:22:53;;;;;;;15.40;2.58;;;11.80;99.90;;;;;;5041873;28;20493;-51
2021/10/11 02:25:19;;;;;;;12.90;2.53;;;11.80;99.90;;;;;;4995114;28;20025;-51
2021/10/11 02:27:45;;;;;;;11.95;2.97;;;11.80;99.90;;;;;;5034762;28;20048;-51
2021/10/11 02:30:12;;;;;;;16.17;2.60;;;11.70;99.90;;;;;;5038977;28;20076;-51
2021/10/11 02:32:38;;;;;;;11.80;3.40;;;11.70;99.90;;;;;;5033373;28;20408;-51
2021/10/11 02:35:05;;;;;;;11.30;2.63;;;11.70;99.90;;;;;;5034979;28;20033;-50
2021/10/11 02:37:31;;;;;;;13.50;2.47;;;11.70;99.90;;;;;;5036121;28;20055;-52
2021/10/11 02:39:57;;;;;;;14.45;2.28;;;11.70;99.90;;;;;;5013429;28;20038;-51
2021/10/11 02:42:24;;;;;;;11.55;2.60;;;11.70;99.90;;;;;;5031306;28;20033;-51
2021/10/11 02:45:10;;;;;;;14.40;3.13;;;11.60;99.90;;;;;;5038835;28;20029;-50
2021/10/11 02:47:35;;;;;;;14.18;2.80;;;11.60;99.90;;;;;;5019747;28;20532;-47
2021/10/11 02:50:01;;;;;;;12.73;2.75;;;11.50;99.90;;;;;;5049375;28;20037;-51
2021/10/11 02:52:28;;;;;;;11.15;2.90;;;11.40;99.90;;;;;;5042044;28;20033;-53
2021/10/11 02:54:54;;;;;;;20.05;2.92;;;11.40;99.90;;;;;;5036320;28;20138;-49
2021/10/11 02:57:19;;;;;;;13.32;2.75;;;11.40;99.90;;;;;;5450208;22;20057;-49
2021/10/11 02:59:45;;;;;;;9.52;2.40;;;11.30;99.90;;;;;;5026228;28;20536;-53
2021/10/11 03:02:10;;;;;;;12.05;2.40;;;11.20;99.90;;;;;;5029959;28;20512;-52
2021/10/11 03:04:36;;;;;;;12.40;2.40;;;11.20;99.90;;;;;;5041964;28;20493;-53
2021/10/11 03:07:02;;;;;;;11.20;2.42;;;11.10;99.90;;;;;;5031932;28;20117;-53
2021/10/11 03:09:27;;;;;;;9.85;2.30;;;11.10;99.90;;;;;;5018200;28;20409;-52
2021/10/11 03:11:53;;;;;;;13.55;2.88;;;11.00;99.90;;;;;;5022142;28;20041;-52
2021/10/11 03:14:18;;;;;;;9.20;2.50;;;11.00;99.90;;;;;;5022751;28;20038;-53
2021/10/11 03:16:44;;;;;;;11.77;2.28;;;10.90;99.90;;;;;;5029729;28;20409;-53
2021/10/11 03:19:09;;;;;;;9.70;2.55;;;10.80;99.90;;;;;;5020931;28;20038;-53
2021/10/11 03:21:35;;;;;;;15.38;2.70;;;10.80;99.90;;;;;;5019992;28;20128;-52
2021/10/11 03:24:00;;;;;;;9.60;2.10;;;10.70;99.90;;;;;;5033562;28;20045;-50
2021/10/11 03:26:26;;;;;;;13.57;2.75;;;10.70;99.90;;;;;;5023110;28;20038;-53
2021/10/11 03:28:51;;;;;;;11.00;2.40;;;10.60;99.90;;;;;;5026699;28;20383;-52
2021/10/11 03:31:18;;;;;;;10.20;2.92;;;10.60;99.90;;;;;;5022797;28;20042;-50
2021/10/11 03:33:43;;;;;;;11.57;2.72;;;10.50;99.90;;;;;;5014289;28;20494;-51
2021/10/11 03:36:09;;;;;;;10.88;2.67;;;10.50;99.90;;;;;;5031397;28;20477;-53
2021/10/11 03:38:34;;;;;;;11.60;2.72;;;10.50;99.90;;;;;;5020251;28;20049;-52
2021/10/11 03:41:00;;;;;;;14.13;2.70;;;10.50;99.90;;;;;;5024521;28;20041;-52
2021/10/11 03:43:26;;;;;;;15.00;2.72;;;10.50;99.90;;;;;;5025654;28;20116;-51
2021/10/11 03:45:55;;;;;;;11.40;3.10;;;10.50;99.90;;;;;;5022826;28;20045;-51
2021/10/11 03:48:21;;;;;;;11.20;2.65;;;10.50;99.90;;;;;;5013442;28;20445;-52
2021/10/11 03:50:47;;;;;;;13.82;3.00;;;10.50;99.90;;;;;;5019600;28;20079;-51
2021/10/11 03:53:16;;;;;;;8.98;2.50;;;10.40;99.90;;;;;;5025290;28;20061;-52
2021/10/11 03:55:42;;;;;;;10.40;2.55;;;10.50;99.90;;;;;;5009291;28;20453;-52
2021/10/11 03:58:09;;;;;;;13.90;3.15;;;10.50;99.90;;;;;;5024380;28;20080;-49
2021/10/11 04:00:36;;;;;;;10.07;2.70;;;10.50;99.90;;;;;;5022808;28;20121;-52
2021/10/11 04:03:04;;;;;;;11.93;2.95;;;10.50;99.90;;;;;;5020025;28;20116;-53
2021/10/11 04:05:30;;;;;;;9.10;2.83;;;10.50;99.90;;;;;;5008551;28;20034;-52
2021/10/11 04:07:59;;;;;;;13.48;3.25;;;10.50;99.90;;;;;;5018128;28;20034;-52
2021/10/11 04:10:31;;;;;;;13.70;2.75;;;10.50;99.90;;;;;;5019187;28;20042;-51
2021/10/11 04:13:02;;;;;;;9.48;2.72;;;10.60;99.90;;;;;;5018614;28;20041;-52
2021/10/11 04:15:27;;;;;;;13.02;3.03;;;10.60;99.90;;;;;;5016382;28;20076;-49
2021/10/11 04:17:55;;;;;;;10.68;2.75;;;10.60;99.90;;;;;;5015453;28;20077;-52
2021/10/11 04:20:22;;;;;;;10.75;2.90;;;10.60;99.90;;;;;;5017739;28;20041;-53
2021/10/11 04:22:47;;;;;;;12.32;3.10;;;10.60;99.90;;;;;;5018098;28;20045;-53
2021/10/11 04:25:13;;;;;;;13.40;3.00;;;10.60;99.90;;;;;;5011617;28;20121;-52
2021/10/11 04:27:39;;;;;;;10.80;2.97;;;10.60;99.90;;;;;;5016435;28;20450;-52
2021/10/11 04:30:07;;;;;;;12.85;2.90;;;10.60;99.90;;;;;;5016510;28;20080;-52
2021/10/11 04:32:32;;;;;;;17.17;3.05;;;10.70;99.90;;;;;;5010732;28;20038;-53
2021/10/11 04:34:58;;;;;;;13.95;3.67;;;10.60;99.90;;;;;;5017940;28;20037;-53
2021/10/11 04:37:23;;;;;;;13.10;2.90;;;10.60;99.90;;;;;;5029580;28;20076;-53
2021/10/11 04:39:49;;;;;;;14.60;2.67;;;10.60;99.90;;;;;;5013653;28;20045;-51
2021/10/11 04:42:15;;;;;;;10.98;2.97;;;10.60;99.90;;;;;;5017100;28;20072;-50
2021/10/11 04:44:40;;;;;;;9.45;3.28;;;10.60;99.90;;;;;;5021780;28;20045;-50
2021/10/11 04:47:06;;;;;;;14.43;2.92;;;10.60;99.90;;;;;;5027498;28;20046;-50
2021/10/11 04:49:32;;;;;;;15.25;3.45;;;10.60;99.90;;;;;;5020755;28;20030;-49
2021/10/11 04:51:57;;;;;;;10.00;2.35;;;10.60;99.90;;;;;;5022890;28;20033;-53
2021/10/11 04:54:23;;;;;;;14.38;2.70;;;10.60;99.90;;;;;;5014979;28;20049;-53
2021/10/11 04:56:48;;;;;;;8.80;2.53;;;10.60;99.90;;;;;;5024113;28;20037;-53
2021/10/11 04:59:14;;;;;;;12.38;2.83;;;10.60;99.90;;;;;;4990219;28;1002667;-52
2021/10/11 05:01:39;;;;;;;7.72;2.17;;;10.60;99.90;;;;;;5028415;28;20049;-49
2021/10/11 05:04:06;;;;;;;12.23;2.75;;;10.50;99.90;;;;;;5003355;28;21265;-50
2021/10/11 05:06:32;;;;;;;17.20;2.72;;;10.60;99.90;;;;;;5012770;28;20037;-50
2021/10/11 05:09:00;;;;;;;11.73;3.40;;;10.50;99.90;;;;;;5021178;28;20060;-49
2021/10/11 05:11:29;;;;;;;9.57;2.55;;;10.50;99.90;;;;;;5014678;28;20065;-52
2021/10/11 05:13:55;;;;;;;9.32;2.22;;;10.50;99.90;;;;;;5024326;28;20116;-50
2021/10/11 05:16:22;;;;;;;12.18;2.53;;;10.50;99.90;;;;;;5019400;28;20072;-49
2021/10/11 05:18:47;;;;;;;12.05;2.95;;;10.50;99.90;;;;;;5003731;28;20049;-50
2021/10/11 05:21:13;;;;;;;12.80;2.30;;;10.50;99.90;;;;;;5026622;28;20038;-50
2021/10/11 05:23:38;;;;;;;9.85;2.35;;;10.50;99.90;;;;;;5022419;28;20560;-52
2021/10/11 05:26:04;;;;;;;9.40;2.35;;;10.50;99.90;;;;;;5017517;28;20490;-53
2021/10/11 05:28:30;;;;;;;10.70;2.33;;;10.50;99.90;;;;;;5019572;28;20030;-49
2021/10/11 05:30:55;;;;;;;14.20;2.67;;;10.50;99.90;;;;;;5018605;28;20033;-52
2021/10/11 05:33:22;;;;;;;10.02;2.20;;;10.50;99.90;;;;;;5017394;28;20041;-51
2021/10/11 05:35:49;;;;;;;12.57;3.45;;;10.50;99.90;;;;;;5002182;28;20038;-49
2021/10/11 05:38:15;;;;;;;9.70;2.10;;;10.50;99.90;;;;;;5013533;28;20421;-52
2021/10/11 05:40:41;;;;;;;12.23;3.03;;;10.50;99.90;;;;;;5001640;28;20045;-49
2021/10/11 05:43:07;;;;;;;12.48;2.22;;;10.50;99.90;;;;;;5009517;28;20073;-53
2021/10/11 05:45:33;;;;;;;13.73;2.30;;;10.50;99.90;;;;;;5006623;28;20042;-52
2021/10/11 05:47:59;;;;;;;13.75;2.90;;;10.50;99.90;;;;;;5009510;28;20034;-52
2021/10/11 05:50:25;;;;;;;10.98;3.08;;;10.50;99.90;;;;;;5007643;28;20026;-53
2021/10/11 05:52:50;;;;;;;11.45;2.67;;;10.50;99.90;;;;;;5013153;28;20092;-50
2021/10/11 05:55:16;;;;;;;11.63;2.80;;;10.50;99.90;;;;;;5018991;28;20048;-52
2021/10/11 05:57:42;;;;;;;12.90;2.90;;;10.50;99.90;;;;;;5012394;28;20044;-51
2021/10/11 06:00:08;;;;;;;13.18;2.63;;;10.50;99.90;;;;;;5003682;28;20088;-49
2021/10/11 06:02:34;;;;;;;11.88;3.00;;;10.50;99.90;;;;;;5008451;28;20038;-51
2021/10/11 06:05:01;;;;;;;10.73;2.45;;;10.40;99.90;;;;;;5008987;28;20063;-49
2021/10/11 06:07:27;;;;;;;11.05;2.47;;;10.40;99.90;;;;;;5019074;28;20042;-53
2021/10/11 06:09:52;;;;;;;8.45;2.53;;;10.40;99.90;;;;;;5013376;28;20041;-49
2021/10/11 06:12:18;;;;;;;11.55;2.88;;;10.40;99.90;;;;;;5008695;28;20030;-52
2021/10/11 06:14:43;;;;;;;14.05;2.80;;;10.40;99.90;;;;;;5006911;28;20040;-50
2021/10/11 06:17:09;;;;;;;10.60;2.53;;;10.30;99.90;;;;;;5022388;28;20413;-51
2021/10/11 06:19:34;;;;;;;11.68;2.50;;;10.30;99.90;;;;;;5017719;28;20494;-48
2021/10/11 06:22:00;;;;;;;13.80;3.40;;;10.30;99.90;;;;;;5022585;28;20033;-49
2021/10/11 06:24:26;;;;;;;11.02;2.70;;;10.30;99.90;;;;;;5028536;28;20095;-48
2021/10/11 06:26:51;;;;;;;14.90;3.10;;;10.30;99.90;;;;;;5015738;28;20045;-48
2021/10/11 06:29:17;;;;;;;9.98;2.95;;;10.30;99.90;;;;;;5019625;28;20410;-50
2021/10/11 06:31:42;;;;;;;15.57;3.75;;;10.30;99.90;;;;;;5015395;28;20049;-50
2021/10/11 06:34:08;;;;;;;53.22;6.53;;;10.20;99.90;;;;;;5024809;28;20042;-47
2021/10/11 06:36:36;;;;;;;28.92;4.85;;;10.30;99.90;;;;;;5023522;28;20030;-50
2021/10/11 06:39:05;;;;;;;14.77;3.38;;;10.20;99.90;;;;;;5027395;28;20175;-49
2021/10/11 06:41:31;;;;;;;22.75;3.05;;;10.20;99.90;;;;;;5015917;28;20120;-48
2021/10/11 06:43:57;;;;;;;12.07;2.97;;;10.30;99.90;;;;;;5021979;28;20030;-48
2021/10/11 06:46:23;;;;;;;14.05;3.33;;;10.30;99.90;;;;;;5020941;28;20450;-49
2021/10/11 06:48:49;;;;;;;9.27;2.70;;;10.30;99.90;;;;;;5022969;28;20331;-48
2021/10/11 06:51:14;;;;;;;10.85;2.70;;;10.30;99.90;;;;;;5024248;28;20056;-48
2021/10/11 06:53:40;;;;;;;13.80;2.90;;;10.30;99.90;;;;;;5023965;28;20033;-48
2021/10/11 06:56:05;;;;;;;11.48;2.78;;;10.30;99.90;;;;;;5012428;28;20038;-50
2021/10/11 06:58:31;;;;;;;14.98;3.10;;;10.30;99.90;;;;;;4999073;28;20089;-53
2021/10/11 07:00:57;;;;;;;13.10;2.88;;;10.30;99.90;;;;;;4992774;28;20069;-50
2021/10/11 07:03:26;;;;;;;11.07;2.55;;;10.30;99.90;;;;;;5000994;28;20510;-51
2021/10/11 07:05:56;;;;;;;15.32;3.80;;;10.30;99.90;;;;;;5007159;28;20038;-53
2021/10/11 07:08:22;;;;;;;10.30;3.00;;;10.30;99.90;;;;;;5005186;28;20037;-48
2021/10/11 07:10:47;;;;;;;14.07;3.33;;;10.30;99.90;;;;;;5001562;28;20040;-52
2021/10/11 07:13:13;;;;;;;15.32;3.17;;;10.30;99.90;;;;;;5013421;28;20045;-48
2021/10/11 07:15:39;;;;;;;21.48;3.70;;;10.40;99.90;;;;;;5005926;28;20100;-48
2021/10/11 07:18:04;;;;;;;12.30;3.10;;;10.40;99.90;;;;;;5005773;28;20034;-48
2021/10/11 07:20:30;;;;;;;9.68;2.45;;;10.40;99.90;;;;;;5013486;28;20030;-51
2021/10/11 07:22:55;;;;;;;12.38;3.03;;;10.50;99.90;;;;;;5013731;28;20084;-49
2021/10/11 07:25:21;;;;;;;11.60;3.00;;;10.50;99.90;;;;;;5010020;28;20532;-51
2021/10/11 07:27:47;;;;;;;15.40;3.33;;;10.50;99.90;;;;;;5016432;28;20041;-51
2021/10/11 07:30:12;;;;;;;13.52;3.60;;;10.60;99.90;;;;;;5018840;28;20052;-50
2021/10/11 07:32:38;;;;;;;13.35;2.95;;;10.70;99.90;;;;;;5015674;28;20079;-50
2021/10/11 07:35:04;;;;;;;13.15;2.80;;;10.80;99.90;;;;;;5014985;28;20029;-49
2021/10/11 07:37:29;;;;;;;11.40;3.10;;;10.80;99.90;;;;;;5013504;28;20490;-51
2021/10/11 07:39:55;;;;;;;15.77;3.13;;;11.00;99.90;;;;;;5013771;28;20030;-51
2021/10/11 07:42:20;;;;;;;16.48;2.95;;;11.10;99.90;;;;;;5020330;28;20518;-51
2021/10/11 07:44:46;;;;;;;16.15;2.97;;;11.20;99.90;;;;;;5013335;28;20402;-51
2021/10/11 07:47:12;;;;;;;13.70;2.72;;;11.40;99.90;;;;;;5015323;28;20053;-47
2021/10/11 07:49:37;;;;;;;10.80;2.58;;;11.50;99.90;;;;;;5013197;28;20045;-50
2021/10/11 07:52:03;;;;;;;12.35;2.85;;;11.60;99.90;;;;;;5012611;28;20034;-50
2021/10/11 07:54:29;;;;;;;17.10;3.03;;;11.70;99.90;;;;;;5006257;28;20038;-51
2021/10/11 07:56:55;;;;;;;12.98;3.13;;;11.80;99.90;;;;;;5008503;28;20037;-51
2021/10/11 07:59:21;;;;;;;18.73;3.60;;;11.90;99.90;;;;;;5006685;28;20092;-51
2021/10/11 08:01:46;;;;;;;12.35;2.90;;;12.10;99.90;;;;;;5006694;28;20053;-50
2021/10/11 08:04:12;;;;;;;15.73;3.22;;;12.20;99.90;;;;;;5004415;28;20037;-50
2021/10/11 08:06:38;;;;;;;16.23;2.60;;;12.30;99.90;;;;;;5015454;28;20553;-51
2021/10/11 08:09:04;;;;;;;15.05;2.72;;;12.40;99.90;;;;;;5011137;28;20034;-51
2021/10/11 08:11:30;;;;;;;12.20;2.40;;;12.60;99.90;;;;;;5010957;28;20029;-49
2021/10/11 08:13:57;;;;;;;20.52;2.53;;;12.70;99.90;;;;;;5017855;28;20029;-50
2021/10/11 08:16:23;;;;;;;15.43;2.75;;;12.80;99.90;;;;;;5011727;28;20085;-50
2021/10/11 08:18:49;;;;;;;16.98;2.45;;;13.00;99.90;;;;;;4999271;28;20112;-50
2021/10/11 08:21:15;;;;;;;18.13;2.60;;;13.10;99.90;;;;;;5012301;28;20041;-50
2021/10/11 08:23:41;;;;;;;16.05;2.50;;;13.20;99.90;;;;;;5015172;28;20046;-50
2021/10/11 08:26:09;;;;;;;14.32;2.70;;;13.30;99.90;;;;;;5016081;28;20362;-51
2021/10/11 08:28:36;;;;;;;13.05;2.72;;;13.30;99.90;;;;;;5016780;28;20038;-51
2021/10/11 08:31:02;;;;;;;14.23;2.80;;;13.30;99.90;;;;;;5017555;28;20065;-51
2021/10/11 08:33:28;;;;;;;16.27;2.25;;;13.30;99.90;;;;;;5017459;28;20087;-51
2021/10/11 08:35:54;;;;;;;13.73;2.40;;;13.40;99.90;;;;;;5015197;28;20046;-55
2021/10/11 08:38:19;;;;;;;8.43;2.38;;;13.40;99.90;;;;;;4978086;28;20092;-53
2021/10/11 08:40:47;;;;;;;12.80;2.42;;;13.40;99.90;;;;;;5020362;28;20038;-52
2021/10/11 08:43:13;;;;;;;14.82;2.10;;;13.50;99.90;;;;;;5018970;28;20038;-48
2021/10/11 08:45:42;;;;;;;9.02;2.13;;;13.50;99.90;;;;;;5013199;28;20087;-51
2021/10/11 08:48:08;;;;;;;15.23;2.80;;;13.60;99.90;;;;;;5018350;28;20034;-53
2021/10/11 08:50:34;;;;;;;18.05;3.22;;;13.70;99.90;;;;;;5014919;28;20389;-53
2021/10/11 08:53:00;;;;;;;13.73;2.67;;;13.80;99.90;;;;;;5019812;28;20025;-49
2021/10/11 08:55:25;;;;;;;11.98;2.20;;;13.80;99.90;;;;;;5015537;28;20037;-51
2021/10/11 08:58:12;;;;;;;15.23;2.63;;;13.90;99.80;;;;;;5020080;28;20065;-54
2021/10/11 09:00:39;;;;;;;11.25;2.30;;;14.00;99.70;;;;;;5014804;28;20789;-47
2021/10/11 09:03:06;;;;;;;9.68;2.13;;;14.00;99.70;;;;;;5015094;28;20041;-52
2021/10/11 09:05:36;;;;;;;13.57;2.67;;;14.20;99.40;;;;;;5018304;28;20375;-51
2021/10/11 09:08:14;;;;;;;14.15;2.28;;;14.30;99.30;;;;;;5011715;28;20029;-49
2021/10/11 09:10:57;;;;;;;11.70;2.10;;;14.40;98.90;;;;;;5017448;28;20042;-51
2021/10/11 09:13:44;;;;;;;16.45;2.20;;;14.40;98.60;;;;;;5019574;28;20041;-50
2021/10/11 09:16:15;;;;;;;16.08;2.88;;;14.40;98.40;;;;;;5010838;28;20050;-50
2021/10/11 09:18:47;;;;;;;11.13;2.00;;;14.50;98.20;;;;;;5011708;28;20521;-53
2021/10/11 09:21:12;;;;;;;17.40;2.00;;;14.60;97.90;;;;;;5007086;28;20048;-51
2021/10/11 09:23:38;;;;;;;15.68;2.60;;;14.60;97.80;;;;;;5011260;28;20030;-48
2021/10/11 09:26:15;;;;;;;14.07;2.40;;;14.60;97.50;;;;;;5011049;28;20084;-51
2021/10/11 09:28:55;;;;;;;13.05;2.28;;;14.60;97.00;;;;;;5010766;28;20441;-50
2021/10/11 09:31:35;;;;;;;15.88;2.33;;;14.60;97.10;;;;;;5010345;28;20037;-51
2021/10/11 09:34:00;;;;;;;9.57;1.85;;;14.50;96.40;;;;;;5012628;28;20497;-48
2021/10/11 09:36:26;;;;;;;9.77;2.13;;;14.50;96.30;;;;;;5020432;28;20088;-48
2021/10/11 09:38:59;;;;;;;13.57;2.10;;;14.50;96.00;;;;;;5018841;28;20050;-50
2021/10/11 09:41:25;;;;;;;9.27;2.13;;;14.50;95.00;;;;;;5029730;28;20099;-51
2021/10/11 09:43:51;;;;;;;10.23;1.67;;;14.50;95.20;;;;;;5024209;28;20038;-51
2021/10/11 09:46:19;;;;;;;10.77;2.03;;;14.50;95.60;;;;;;5022699;28;20091;-49
2021/10/11 09:48:52;;;;;;;12.23;2.30;;;14.60;95.60;;;;;;5004045;28;20498;-50
2021/10/11 09:51:21;;;;;;;9.80;1.98;;;14.60;96.00;;;;;;5012469;28;20057;-52
2021/10/11 09:53:48;;;;;;;9.60;2.08;;;14.60;95.80;;;;;;5020993;28;20065;-48
2021/10/11 09:56:14;;;;;;;10.63;2.65;;;14.70;95.80;;;;;;5020842;28;20033;-52
2021/10/11 09:58:40;;;;;;;11.18;1.90;;;14.80;95.00;;;;;;5017522;28;20149;-49
2021/10/11 10:01:06;;;;;;;12.45;2.10;;;14.90;94.60;;;;;;5017849;28;20485;-53
2021/10/11 10:03:34;;;;;;;8.75;1.77;;;14.90;94.30;;;;;;5016973;28;20037;-51
2021/10/11 10:06:01;;;;;;;12.07;1.85;;;15.00;93.50;;;;;;5019071;28;20042;-52
2021/10/11 10:08:28;;;;;;;8.15;1.58;;;15.00;93.70;;;;;;5012384;28;20042;-51
2021/10/11 10:10:57;;;;;;;7.80;1.88;;;15.00;93.80;;;;;;5025656;28;20045;-53
2021/10/11 10:13:26;;;;;;;7.72;1.52;;;15.00;93.80;;;;;;5013882;28;20061;-50
2021/10/11 10:15:57;;;;;;;12.20;1.85;;;15.00;94.00;;;;;;5019396;28;20046;-50
2021/10/11 10:18:23;;;;;;;11.10;2.10;;;15.00;93.70;;;;;;5026358;28;20034;-51
2021/10/11 10:20:57;;;;;;;10.25;1.95;;;15.10;92.80;;;;;;5024325;28;20141;-53
2021/10/11 10:23:24;;;;;;;6.82;1.30;;;15.00;92.90;;;;;;5018009;28;20038;-50
2021/10/11 10:25:50;;;;;;;6.43;1.70;;;15.00;92.10;;;;;;5022613;28;20104;-50
2021/10/11 10:28:16;;;;;;;8.98;1.60;;;15.00;92.50;;;;;;5014752;28;20510;-50
2021/10/11 10:30:42;;;;;;;9.10;1.92;;;15.00;92.10;;;;;;5015285;28;20046;-49
2021/10/11 10:33:12;;;;;;;9.40;1.63;;;15.00;91.60;;;;;;5020074;28;20116;-52
2021/10/11 10:35:45;;;;;;;11.73;1.55;;;14.90;91.90;;;;;;5011538;28;20120;-50
2021/10/11 10:38:23;;;;;;;7.32;1.48;;;14.90;92.10;;;;;;5023291;28;20113;-50
2021/10/11 10:40:49;;;;;;;6.82;1.38;;;15.00;91.70;;;;;;5017401;28;20109;-51
2021/10/11 10:43:17;;;;;;;11.98;1.70;;;15.00;91.90;;;;;;5024197;28;20469;-48
2021/10/11 10:45:44;;;;;;;8.98;1.70;;;15.10;92.30;;;;;;5024869;28;20320;-50
2021/10/11 10:48:17;;;;;;;8.25;1.52;;;15.20;92.10;;;;;;5027154;28;20033;-50
2021/10/11 10:50:43;;;;;;;8.15;2.20;;;15.30;91.10;;;;;;5025516;28;20041;-51
2021/10/11 10:53:09;;;;;;;9.30;1.80;;;15.40;90.80;;;;;;5022263;28;20041;-49
2021/10/11 10:55:38;;;;;;;9.00;1.38;;;15.50;90.80;;;;;;5026701;28;20056;-51
2021/10/11 10:58:05;;;;;;;6.82;1.60;;;15.60;88.80;;;;;;5020267;28;20037;-51
2021/10/11 11:00:32;;;;;;;10.25;2.05;;;15.60;89.30;;;;;;5019077;28;20514;-51
2021/10/11 11:02:58;;;;;;;5.20;1.42;;;15.50;87.10;;;;;;5027160;28;20034;-49
2021/10/11 11:05:26;;;;;;;7.07;1.30;;;15.50;88.60;;;;;;5018840;28;20038;-51
2021/10/11 11:07:53;;;;;;;6.07;1.33;;;15.40;90.20;;;;;;5024265;28;20045;-51
2021/10/11 11:10:22;;;;;;;8.27;1.30;;;15.50;89.20;;;;;;5013484;28;20109;-51
2021/10/11 11:13:14;;;;;;;5.30;1.20;;;15.50;88.40;;;;;;5025467;28;20095;-53
2021/10/11 11:15:49;;;;;;;8.90;1.48;;;15.60;88.10;;;;;;5013918;28;20119;-49
2021/10/11 11:18:23;;;;;;;7.75;1.52;;;15.40;88.50;;;;;;5018509;28;20117;-51
2021/10/11 11:20:50;;;;;;;6.75;1.42;;;15.30;89.50;;;;;;5017075;28;20057;-51
2021/10/11 11:23:22;;;;;;;8.15;1.60;;;15.10;89.30;;;;;;5016724;28;20394;-54
2021/10/11 11:25:51;;;;;;;5.47;1.58;;;15.00;88.50;;;;;;5017684;28;20401;-53
2021/10/11 11:28:25;;;;;;;8.73;1.35;;;14.90;88.90;;;;;;5023257;28;20037;-50
2021/10/11 11:30:52;;;;;;;7.57;1.40;;;14.80;88.70;;;;;;5021492;28;20049;-49
2021/10/11 11:33:27;;;;;;;7.47;1.35;;;14.80;89.80;;;;;;5021053;28;20040;-51
2021/10/11 11:35:55;;;;;;;10.05;1.25;;;14.80;90.00;;;;;;5016587;28;20040;-50
2021/10/11 11:38:24;;;;;;;9.20;2.13;;;14.80;90.40;;;;;;5021522;28;20052;-51
2021/10/11 11:40:55;;;;;;;10.60;1.60;;;14.80;90.70;;;;;;5018683;28;20050;-49
2021/10/11 11:43:22;;;;;;;8.47;1.53;;;14.80;90.70;;;;;;5008168;28;20030;-51
2021/10/11 11:45:50;;;;;;;6.55;1.30;;;14.80;90.90;;;;;;5012070;28;20057;-51
2021/10/11 11:48:17;;;;;;;8.57;1.50;;;14.90;91.30;;;;;;5012063;28;20532;-50
2021/10/11 11:50:45;;;;;;;12.70;1.55;;;15.00;91.40;;;;;;5013129;28;20045;-52
2021/10/11 11:53:14;;;;;;;7.03;1.40;;;15.30;89.40;;;;;;5013241;28;20058;-53
2021/10/11 11:55:41;;;;;;;8.73;1.35;;;15.40;89.80;;;;;;5009853;28;20042;-53
2021/10/11 11:58:13;;;;;;;8.75;1.60;;;15.50;90.00;;;;;;5005246;28;20413;-53
2021/10/11 12:00:43;;;;;;;6.47;1.42;;;15.60;89.80;;;;;;5000079;28;20038;-51
2021/10/11 12:03:10;;;;;;;8.63;1.60;;;15.70;89.60;;;;;;4998052;28;20390;-53
2021/10/11 12:05:36;;;;;;;8.23;1.55;;;15.70;88.80;;;;;;5001035;28;20513;-53
2021/10/11 12:08:02;;;;;;;7.57;1.50;;;15.80;88.40;;;;;;5001375;28;20034;-53
2021/10/11 12:10:29;;;;;;;10.23;1.80;;;15.80;88.50;;;;;;5006402;28;20069;-53
2021/10/11 12:13:03;;;;;;;7.18;1.75;;;15.90;86.90;;;;;;4997750;28;20129;-50
2021/10/11 12:15:30;;;;;;;2.70;1.02;;;16.00;86.70;;;;;;4999246;28;20135;-53
2021/10/11 12:18:07;;;;;;;9.40;1.63;;;16.10;85.40;;;;;;5004601;28;20069;-51
2021/10/11 12:20:50;;;;;;;7.93;1.20;;;16.00;82.70;;;;;;5003405;28;20493;-54
2021/10/11 12:23:17;;;;;;;7.65;1.77;;;16.00;82.90;;;;;;5000272;28;20072;-51
2021/10/11 12:25:44;;;;;;;8.15;1.20;;;15.90;84.30;;;;;;5000212;28;20127;-51
2021/10/11 12:28:12;;;;;;;8.18;1.75;;;15.80;84.40;;;;;;5006826;28;20074;-54
2021/10/11 12:30:38;;;;;;;17.10;2.47;;;15.80;80.70;;;;;;4998859;28;20050;-51
2021/10/11 12:33:11;;;;;;;6.65;1.40;;;15.70;82.40;;;;;;4997292;28;20034;-53
2021/10/11 12:35:37;;;;;;;7.13;1.40;;;15.60;82.60;;;;;;5000518;28;20046;-53
2021/10/11 12:38:11;;;;;;;9.30;1.50;;;15.50;83.80;;;;;;5019149;28;20417;-54
2021/10/11 12:40:38;;;;;;;8.60;1.73;;;15.30;86.40;;;;;;5010527;28;20333;-56